sensor_id;sensor_type;location;lat;lon;timestamp;pressure;altitude;pressure_sealevel;temperature;humidity
45345;BME280;31078;48.304;11.896;2022-07-19T00:02:07;96811.44;;;18.91;55.38
45345;BME280;31078;48.304;11.896;2022-07-19T00:04:34;96808.69;;;18.91;55.13
45345;BME280;31078;48.304;11.896;2022-07-19T00:07:02;96803.88;;;18.88;55.99
45345;BME280;31078;48.304;11.896;2022-07-19T00:09:28;96799.97;;;18.89;56.04
45345;BME280;31078;48.304;11.896;2022-07-19T00:11:55;96792.84;;;18.88;56.04
45345;BME280;31078;48.304;11.896;2022-07-19T00:14:22;96795.88;;;18.83;55.65
45345;BME280;31078;48.304;11.896;2022-07-19T00:16:50;96802.16;;;18.80;55.83
45345;BME280;31078;48.304;11.896;2022-07-19T00:19:17;96803.66;;;18.77;55.26
45345;BME280;31078;48.304;11.896;2022-07-19T00:21:44;96798.03;;;18.74;55.86
45345;BME280;31078;48.304;11.896;2022-07-19T00:24:11;96798.78;;;18.71;55.91
45345;BME280;31078;48.304;11.896;2022-07-19T00:26:37;96797.88;;;18.67;55.83
45345;BME280;31078;48.304;11.896;2022-07-19T00:29:04;96792.19;;;18.60;56.58
45345;BME280;31078;48.304;11.896;2022-07-19T00:31:30;96792.91;;;18.57;56.44
45345;BME280;31078;48.304;11.896;2022-07-19T00:33:58;96797.53;;;18.52;56.56
45345;BME280;31078;48.304;11.896;2022-07-19T00:36:25;96795.50;;;18.49;56.78
45345;BME280;31078;48.304;11.896;2022-07-19T00:38:51;96795.78;;;18.44;57.43
45345;BME280;31078;48.304;11.896;2022-07-19T00:41:18;96799.50;;;18.36;57.29
45345;BME280;31078;48.304;11.896;2022-07-19T00:43:46;96798.63;;;18.32;57.50
45345;BME280;31078;48.304;11.896;2022-07-19T00:46:13;96800.16;;;18.30;58.18
45345;BME280;31078;48.304;11.896;2022-07-19T00:48:40;96798.09;;;18.26;58.67
45345;BME280;31078;48.304;11.896;2022-07-19T00:51:09;96798.81;;;18.23;58.92
45345;BME280;31078;48.304;11.896;2022-07-19T00:53:36;96796.88;;;18.24;59.61
45345;BME280;31078;48.304;11.896;2022-07-19T00:56:04;96795.28;;;18.23;59.83
45345;BME280;31078;48.304;11.896;2022-07-19T00:58:31;96794.28;;;18.15;59.75
45345;BME280;31078;48.304;11.896;2022-07-19T01:00:58;96793.75;;;18.10;60.43
45345;BME280;31078;48.304;11.896;2022-07-19T01:03:27;96801.13;;;18.06;61.25
45345;BME280;31078;48.304;11.896;2022-07-19T01:05:54;96800.53;;;17.96;61.59
45345;BME280;31078;48.304;11.896;2022-07-19T01:08:22;96805.31;;;17.84;61.10
45345;BME280;31078;48.304;11.896;2022-07-19T01:10:49;96800.16;;;17.82;61.88
45345;BME280;31078;48.304;11.896;2022-07-19T01:13:15;96806.09;;;17.84;62.07
45345;BME280;31078;48.304;11.896;2022-07-19T01:15:42;96798.56;;;17.81;62.05
45345;BME280;31078;48.304;11.896;2022-07-19T01:18:09;96801.31;;;17.81;62.27
45345;BME280;31078;48.304;11.896;2022-07-19T01:20:36;96799.00;;;17.83;62.23
45345;BME280;31078;48.304;11.896;2022-07-19T01:23:04;96800.41;;;17.77;62.06
45345;BME280;31078;48.304;11.896;2022-07-19T01:25:32;96801.09;;;17.74;62.33
45345;BME280;31078;48.304;11.896;2022-07-19T01:27:59;96800.72;;;17.60;62.15
45345;BME280;31078;48.304;11.896;2022-07-19T01:30:26;96803.47;;;17.60;61.66
45345;BME280;31078;48.304;11.896;2022-07-19T01:32:54;96792.91;;;17.62;61.50
45345;BME280;31078;48.304;11.896;2022-07-19T01:35:21;96802.75;;;17.63;61.38
45345;BME280;31078;48.304;11.896;2022-07-19T01:37:49;96806.41;;;17.67;61.13
45345;BME280;31078;48.304;11.896;2022-07-19T01:40:17;96801.09;;;17.74;60.82
45345;BME280;31078;48.304;11.896;2022-07-19T01:42:45;96799.03;;;17.71;61.31
45345;BME280;31078;48.304;11.896;2022-07-19T01:45:13;96808.06;;;17.56;61.98
45345;BME280;31078;48.304;11.896;2022-07-19T01:47:41;96809.94;;;17.52;62.30
45345;BME280;31078;48.304;11.896;2022-07-19T01:50:10;96812.25;;;17.50;62.53
45345;BME280;31078;48.304;11.896;2022-07-19T01:52:37;96801.22;;;17.50;63.27
45345;BME280;31078;48.304;11.896;2022-07-19T01:55:05;96804.41;;;17.52;62.74
45345;BME280;31078;48.304;11.896;2022-07-19T01:57:33;96803.50;;;17.47;62.89
45345;BME280;31078;48.304;11.896;2022-07-19T01:59:59;96797.94;;;17.44;62.90
45345;BME280;31078;48.304;11.896;2022-07-19T02:02:26;96798.63;;;17.41;63.69
45345;BME280;31078;48.304;11.896;2022-07-19T02:04:53;96801.00;;;17.42;63.94
45345;BME280;31078;48.304;11.896;2022-07-19T02:07:19;96790.91;;;17.46;63.57
45345;BME280;31078;48.304;11.896;2022-07-19T02:09:46;96797.81;;;17.40;62.66
45345;BME280;31078;48.304;11.896;2022-07-19T02:12:12;96794.47;;;17.47;62.16
45345;BME280;31078;48.304;11.896;2022-07-19T02:14:40;96785.28;;;17.43;62.05
45345;BME280;31078;48.304;11.896;2022-07-19T02:17:07;96782.91;;;17.41;62.50
45345;BME280;31078;48.304;11.896;2022-07-19T02:19:33;96777.09;;;17.31;62.17
45345;BME280;31078;48.304;11.896;2022-07-19T02:22:00;96768.81;;;17.15;61.82
45345;BME280;31078;48.304;11.896;2022-07-19T02:24:29;96767.88;;;17.23;62.79
45345;BME280;31078;48.304;11.896;2022-07-19T02:26:55;96762.69;;;17.21;62.69
45345;BME280;31078;48.304;11.896;2022-07-19T02:29:22;96760.75;;;17.22;62.37
45345;BME280;31078;48.304;11.896;2022-07-19T02:31:49;96761.38;;;17.31;61.72
45345;BME280;31078;48.304;11.896;2022-07-19T02:34:16;96758.09;;;17.26;62.00
45345;BME280;31078;48.304;11.896;2022-07-19T02:36:42;96759.59;;;17.23;62.16
45345;BME280;31078;48.304;11.896;2022-07-19T02:39:09;96750.63;;;17.26;62.25
45345;BME280;31078;48.304;11.896;2022-07-19T02:41:36;96761.22;;;17.24;61.59
45345;BME280;31078;48.304;11.896;2022-07-19T02:44:02;96758.97;;;17.14;61.30
45345;BME280;31078;48.304;11.896;2022-07-19T02:46:29;96759.75;;;17.14;61.42
45345;BME280;31078;48.304;11.896;2022-07-19T02:48:57;96763.84;;;17.20;61.44
45345;BME280;31078;48.304;11.896;2022-07-19T02:51:24;96762.63;;;17.18;62.48
45345;BME280;31078;48.304;11.896;2022-07-19T02:53:51;96767.66;;;17.16;62.36
45345;BME280;31078;48.304;11.896;2022-07-19T02:56:17;96766.31;;;17.10;62.77
45345;BME280;31078;48.304;11.896;2022-07-19T02:58:44;96762.19;;;17.04;62.57
45345;BME280;31078;48.304;11.896;2022-07-19T03:01:10;96768.31;;;16.97;62.64
45345;BME280;31078;48.304;11.896;2022-07-19T03:03:37;96767.41;;;16.93;63.24
45345;BME280;31078;48.304;11.896;2022-07-19T03:06:16;96770.75;;;16.86;64.22
45345;BME280;31078;48.304;11.896;2022-07-19T03:08:43;96767.78;;;16.79;64.13
45345;BME280;31078;48.304;11.896;2022-07-19T03:11:11;96771.13;;;16.73;65.02
45345;BME280;31078;48.304;11.896;2022-07-19T03:13:38;96772.81;;;16.65;65.30
45345;BME280;31078;48.304;11.896;2022-07-19T03:16:05;96764.81;;;16.60;65.45
45345;BME280;31078;48.304;11.896;2022-07-19T03:18:32;96767.78;;;16.55;66.20
45345;BME280;31078;48.304;11.896;2022-07-19T03:20:59;96770.09;;;16.53;66.05
45345;BME280;31078;48.304;11.896;2022-07-19T03:23:28;96758.97;;;16.49;66.04
45345;BME280;31078;48.304;11.896;2022-07-19T03:25:56;96776.31;;;16.50;66.03
45345;BME280;31078;48.304;11.896;2022-07-19T03:28:23;96775.38;;;16.46;65.89
45345;BME280;31078;48.304;11.896;2022-07-19T03:30:49;96778.13;;;16.46;65.77
45345;BME280;31078;48.304;11.896;2022-07-19T03:33:16;96778.47;;;16.44;66.30
45345;BME280;31078;48.304;11.896;2022-07-19T03:35:44;96776.63;;;16.48;66.30
45345;BME280;31078;48.304;11.896;2022-07-19T03:38:11;96777.78;;;16.47;65.84
45345;BME280;31078;48.304;11.896;2022-07-19T03:40:39;96779.28;;;16.44;66.14
45345;BME280;31078;48.304;11.896;2022-07-19T03:43:06;96781.91;;;16.41;66.42
45345;BME280;31078;48.304;11.896;2022-07-19T03:45:33;96784.66;;;16.41;66.67
45345;BME280;31078;48.304;11.896;2022-07-19T03:47:59;96775.16;;;16.38;66.58
45345;BME280;31078;48.304;11.896;2022-07-19T03:50:26;96774.34;;;16.38;66.66
45345;BME280;31078;48.304;11.896;2022-07-19T03:52:53;96776.19;;;16.46;66.67
45345;BME280;31078;48.304;11.896;2022-07-19T03:55:20;96773.56;;;16.50;66.57
45345;BME280;31078;48.304;11.896;2022-07-19T03:57:48;96779.28;;;16.44;65.73
45345;BME280;31078;48.304;11.896;2022-07-19T04:00:14;96770.09;;;16.53;66.13
45345;BME280;31078;48.304;11.896;2022-07-19T04:02:41;96773.41;;;16.58;66.01
45345;BME280;31078;48.304;11.896;2022-07-19T04:05:08;96773.41;;;16.58;65.00
45345;BME280;31078;48.304;11.896;2022-07-19T04:07:35;96779.94;;;16.66;65.56
45345;BME280;31078;48.304;11.896;2022-07-19T04:10:01;96778.06;;;16.70;65.07
45345;BME280;31078;48.304;11.896;2022-07-19T04:12:28;96777.63;;;16.68;64.62
45345;BME280;31078;48.304;11.896;2022-07-19T04:14:56;96772.38;;;16.75;64.48
45345;BME280;31078;48.304;11.896;2022-07-19T04:17:23;96778.78;;;16.79;64.33
45345;BME280;31078;48.304;11.896;2022-07-19T04:19:49;96774.19;;;16.83;63.85
45345;BME280;31078;48.304;11.896;2022-07-19T04:22:16;96776.34;;;16.90;64.36
45345;BME280;31078;48.304;11.896;2022-07-19T04:24:42;96773.09;;;17.00;64.17
45345;BME280;31078;48.304;11.896;2022-07-19T04:27:09;96777.34;;;16.98;63.94
45345;BME280;31078;48.304;11.896;2022-07-19T04:29:36;96777.34;;;16.98;63.76
45345;BME280;31078;48.304;11.896;2022-07-19T04:32:04;96783.31;;;17.00;63.50
45345;BME280;31078;48.304;11.896;2022-07-19T04:34:32;96775.78;;;16.97;63.04
45345;BME280;31078;48.304;11.896;2022-07-19T04:36:58;96778.53;;;16.97;63.85
45345;BME280;31078;48.304;11.896;2022-07-19T04:39:25;96783.09;;;16.92;63.79
45345;BME280;31078;48.304;11.896;2022-07-19T04:41:51;96777.81;;;17.00;63.55
45345;BME280;31078;48.304;11.896;2022-07-19T04:44:18;96783.50;;;17.07;63.83
45345;BME280;31078;48.304;11.896;2022-07-19T04:46:45;96780.50;;;17.12;63.35
45345;BME280;31078;48.304;11.896;2022-07-19T04:49:13;96783.00;;;17.17;63.77
45345;BME280;31078;48.304;11.896;2022-07-19T04:51:40;96787.13;;;17.23;63.55
45345;BME280;31078;48.304;11.896;2022-07-19T04:54:06;96788.81;;;17.28;64.60
45345;BME280;31078;48.304;11.896;2022-07-19T04:56:33;96795.56;;;17.30;63.76
45345;BME280;31078;48.304;11.896;2022-07-19T04:59:00;96790.63;;;17.36;64.51
45345;BME280;31078;48.304;11.896;2022-07-19T05:01:26;96792.31;;;17.40;63.93
45345;BME280;31078;48.304;11.896;2022-07-19T05:03:53;96797.09;;;17.43;64.96
45345;BME280;31078;48.304;11.896;2022-07-19T05:06:21;96798.81;;;17.48;65.01
45345;BME280;31078;48.304;11.896;2022-07-19T05:08:50;96800.50;;;17.53;65.16
45345;BME280;31078;48.304;11.896;2022-07-19T05:11:16;96802.34;;;17.48;64.26
45345;BME280;31078;48.304;11.896;2022-07-19T05:13:46;96792.72;;;17.55;63.34
45345;BME280;31078;48.304;11.896;2022-07-19T05:16:13;96792.72;;;17.55;63.95
45345;BME280;31078;48.304;11.896;2022-07-19T05:18:39;96794.50;;;17.63;63.75
45345;BME280;31078;48.304;11.896;2022-07-19T05:21:06;96792.84;;;17.74;64.18
45345;BME280;31078;48.304;11.896;2022-07-19T05:23:33;96790.56;;;17.76;64.26
45345;BME280;31078;48.304;11.896;2022-07-19T05:26:00;96786.13;;;17.87;64.08
45345;BME280;31078;48.304;11.896;2022-07-19T05:28:26;96787.09;;;17.95;64.23
45345;BME280;31078;48.304;11.896;2022-07-19T05:30:53;96794.56;;;17.94;63.45
45345;BME280;31078;48.304;11.896;2022-07-19T05:33:20;96797.66;;;17.93;63.10
45345;BME280;31078;48.304;11.896;2022-07-19T05:35:46;96792.00;;;18.02;63.18
45345;BME280;31078;48.304;11.896;2022-07-19T05:38:13;96783.88;;;18.09;63.54
45345;BME280;31078;48.304;11.896;2022-07-19T05:40:41;96790.84;;;18.03;63.48
45345;BME280;31078;48.304;11.896;2022-07-19T05:43:07;96795.06;;;18.16;63.44
45345;BME280;31078;48.304;11.896;2022-07-19T05:45:34;96785.03;;;18.23;63.48
45345;BME280;31078;48.304;11.896;2022-07-19T05:48:00;96781.66;;;18.30;63.54
45345;BME280;31078;48.304;11.896;2022-07-19T05:50:27;96779.22;;;18.44;63.72
45345;BME280;31078;48.304;11.896;2022-07-19T05:52:53;96781.88;;;18.57;63.80
45345;BME280;31078;48.304;11.896;2022-07-19T05:55:20;96775.47;;;18.68;63.68
45345;BME280;31078;48.304;11.896;2022-07-19T05:57:48;96775.41;;;18.84;62.74
45345;BME280;31078;48.304;11.896;2022-07-19T06:00:15;96778.63;;;18.86;62.25
45345;BME280;31078;48.304;11.896;2022-07-19T06:02:41;96773.75;;;18.99;62.70
45345;BME280;31078;48.304;11.896;2022-07-19T06:05:09;96781.41;;;19.06;62.78
45345;BME280;31078;48.304;11.896;2022-07-19T06:07:36;96784.72;;;19.15;62.51
45345;BME280;31078;48.304;11.896;2022-07-19T06:10:04;96774.63;;;19.03;61.66
45345;BME280;31078;48.304;11.896;2022-07-19T06:12:30;96776.59;;;19.02;61.93
45345;BME280;31078;48.304;11.896;2022-07-19T06:14:58;96782.41;;;19.17;62.40
45345;BME280;31078;48.304;11.896;2022-07-19T06:17:25;96784.81;;;19.18;61.99
45345;BME280;31078;48.304;11.896;2022-07-19T06:19:51;96770.25;;;19.41;62.16
45345;BME280;31078;48.304;11.896;2022-07-19T06:22:18;96786.03;;;19.40;60.37
45345;BME280;31078;48.304;11.896;2022-07-19T06:24:44;96780.78;;;19.54;60.77
45345;BME280;31078;48.304;11.896;2022-07-19T06:27:11;96788.06;;;19.63;60.32
45345;BME280;31078;48.304;11.896;2022-07-19T06:29:37;96781.88;;;19.69;59.89
45345;BME280;31078;48.304;11.896;2022-07-19T06:32:05;96787.47;;;19.73;59.94
45345;BME280;31078;48.304;11.896;2022-07-19T06:34:32;96787.00;;;19.90;59.87
45345;BME280;31078;48.304;11.896;2022-07-19T06:36:58;96786.38;;;20.00;59.23
45345;BME280;31078;48.304;11.896;2022-07-19T06:39:25;96783.34;;;20.09;58.70
45345;BME280;31078;48.304;11.896;2022-07-19T06:41:51;96785.88;;;20.18;58.32
45345;BME280;31078;48.304;11.896;2022-07-19T06:44:18;96787.53;;;20.22;57.73
45345;BME280;31078;48.304;11.896;2022-07-19T06:46:45;96783.75;;;20.34;58.09
45345;BME280;31078;48.304;11.896;2022-07-19T06:49:13;96779.66;;;20.47;57.83
45345;BME280;31078;48.304;11.896;2022-07-19T06:51:40;96773.91;;;20.59;57.37
45345;BME280;31078;48.304;11.896;2022-07-19T06:54:06;96772.22;;;20.78;57.00
45345;BME280;31078;48.304;11.896;2022-07-19T06:56:33;96781.47;;;20.89;57.28
45345;BME280;31078;48.304;11.896;2022-07-19T06:58:59;96773.75;;;21.05;56.05
45345;BME280;31078;48.304;11.896;2022-07-19T07:01:26;96774.75;;;21.24;55.81
45345;BME280;31078;48.304;11.896;2022-07-19T07:03:53;96769.34;;;21.31;54.40
45345;BME280;31078;48.304;11.896;2022-07-19T07:06:21;96767.13;;;21.44;53.98
45345;BME280;31078;48.304;11.896;2022-07-19T07:08:47;96771.97;;;21.54;53.25
45345;BME280;31078;48.304;11.896;2022-07-19T07:11:13;96768.97;;;21.70;53.94
45345;BME280;31078;48.304;11.896;2022-07-19T07:13:40;96766.31;;;21.80;52.96
45345;BME280;31078;48.304;11.896;2022-07-19T07:16:07;96769.97;;;21.88;52.28
45345;BME280;31078;48.304;11.896;2022-07-19T07:18:34;96772.44;;;22.00;51.77
45345;BME280;31078;48.304;11.896;2022-07-19T07:21:00;96769.44;;;22.16;51.53
45345;BME280;31078;48.304;11.896;2022-07-19T07:23:28;96780.22;;;22.25;51.17
45345;BME280;31078;48.304;11.896;2022-07-19T07:25:55;96765.66;;;22.38;50.95
45345;BME280;31078;48.304;11.896;2022-07-19T07:28:21;96774.13;;;22.56;51.27
45345;BME280;31078;48.304;11.896;2022-07-19T07:30:48;96774.50;;;22.58;49.39
45345;BME280;31078;48.304;11.896;2022-07-19T07:33:14;96770.66;;;22.74;50.58
45345;BME280;31078;48.304;11.896;2022-07-19T07:35:41;96777.84;;;22.85;50.28
45345;BME280;31078;48.304;11.896;2022-07-19T07:38:07;96782.63;;;22.85;49.17
45345;BME280;31078;48.304;11.896;2022-07-19T07:40:35;96777.94;;;22.96;49.00
45345;BME280;31078;48.304;11.896;2022-07-19T07:43:02;96772.47;;;23.10;49.33
45345;BME280;31078;48.304;11.896;2022-07-19T07:45:29;96777.63;;;23.08;47.99
45345;BME280;31078;48.304;11.896;2022-07-19T07:47:55;96767.75;;;23.22;47.76
45345;BME280;31078;48.304;11.896;2022-07-19T07:50:22;96774.13;;;23.33;48.08
45345;BME280;31078;48.304;11.896;2022-07-19T07:52:49;96768.63;;;23.47;47.45
45345;BME280;31078;48.304;11.896;2022-07-19T07:55:15;96765.50;;;23.59;46.61
45345;BME280;31078;48.304;11.896;2022-07-19T07:57:43;96767.19;;;23.82;46.37
45345;BME280;31078;48.304;11.896;2022-07-19T08:00:11;96771.97;;;23.92;46.15
45345;BME280;31078;48.304;11.896;2022-07-19T08:02:39;96770.00;;;24.07;45.40
45345;BME280;31078;48.304;11.896;2022-07-19T08:05:06;96766.41;;;24.20;44.43
45345;BME280;31078;48.304;11.896;2022-07-19T08:07:33;96766.84;;;24.44;43.97
45345;BME280;31078;48.304;11.896;2022-07-19T08:10:00;96767.97;;;24.79;43.83
45345;BME280;31078;48.304;11.896;2022-07-19T08:12:27;96758.25;;;25.44;42.05
45345;BME280;31078;48.304;11.896;2022-07-19T08:14:55;96761.19;;;25.89;39.71
45345;BME280;31078;48.304;11.896;2022-07-19T08:17:24;96751.94;;;26.51;38.98
45345;BME280;31078;48.304;11.896;2022-07-19T08:19:51;96754.63;;;27.03;37.90
45345;BME280;31078;48.304;11.896;2022-07-19T08:22:18;96752.91;;;27.16;37.05
45345;BME280;31078;48.304;11.896;2022-07-19T08:24:44;96748.63;;;27.39;36.90
45345;BME280;31078;48.304;11.896;2022-07-19T08:27:11;96752.25;;;27.66;36.99
45345;BME280;31078;48.304;11.896;2022-07-19T08:29:37;96758.44;;;27.85;36.12
45345;BME280;31078;48.304;11.896;2022-07-19T08:32:06;96755.44;;;27.99;36.08
45345;BME280;31078;48.304;11.896;2022-07-19T08:34:32;96754.28;;;27.93;34.58
45345;BME280;31078;48.304;11.896;2022-07-19T08:36:59;96752.38;;;28.13;37.02
45345;BME280;31078;48.304;11.896;2022-07-19T08:39:26;96762.13;;;28.05;34.69
45345;BME280;31078;48.304;11.896;2022-07-19T08:41:52;96757.84;;;27.97;35.22
45345;BME280;31078;48.304;11.896;2022-07-19T08:44:19;96760.16;;;28.02;34.64
45345;BME280;31078;48.304;11.896;2022-07-19T08:46:48;96762.28;;;27.94;34.61
45345;BME280;31078;48.304;11.896;2022-07-19T08:49:16;96760.06;;;28.09;34.25
45345;BME280;31078;48.304;11.896;2022-07-19T08:51:43;96754.59;;;28.25;33.47
45345;BME280;31078;48.304;11.896;2022-07-19T08:54:10;96760.13;;;28.29;33.90
45345;BME280;31078;48.304;11.896;2022-07-19T08:56:37;96753.59;;;28.39;34.20
45345;BME280;31078;48.304;11.896;2022-07-19T08:59:22;96755.25;;;28.37;33.73
45345;BME280;31078;48.304;11.896;2022-07-19T09:01:49;96750.44;;;28.37;33.96
45345;BME280;31078;48.304;11.896;2022-07-19T09:04:18;96757.69;;;28.58;33.46
45345;BME280;31078;48.304;11.896;2022-07-19T09:06:47;96751.97;;;28.42;31.94
45345;BME280;31078;48.304;11.896;2022-07-19T09:09:17;96755.97;;;28.64;32.82
45345;BME280;31078;48.304;11.896;2022-07-19T09:11:45;96747.50;;;28.68;31.87
45345;BME280;31078;48.304;11.896;2022-07-19T09:14:17;96758.03;;;28.83;32.69
45345;BME280;31078;48.304;11.896;2022-07-19T09:16:56;96740.84;;;29.05;32.83
45345;BME280;31078;48.304;11.896;2022-07-19T09:19:26;96739.94;;;28.88;30.86
45345;BME280;31078;48.304;11.896;2022-07-19T09:21:54;96741.16;;;28.87;30.00
45345;BME280;31078;48.304;11.896;2022-07-19T09:24:22;96736.09;;;28.78;30.23
45345;BME280;31078;48.304;11.896;2022-07-19T09:26:57;96728.06;;;28.80;29.98
45345;BME280;31078;48.304;11.896;2022-07-19T09:29:24;96742.91;;;29.01;30.27
45345;BME280;31078;48.304;11.896;2022-07-19T09:31:58;96733.00;;;29.16;31.05
45345;BME280;31078;48.304;11.896;2022-07-19T09:34:30;96727.09;;;29.30;30.63
45345;BME280;31078;48.304;11.896;2022-07-19T09:37:17;96725.72;;;29.38;30.11
45345;BME280;31078;48.304;11.896;2022-07-19T09:39:46;96726.09;;;29.41;29.36
45345;BME280;31078;48.304;11.896;2022-07-19T09:42:15;96734.00;;;29.46;28.73
45345;BME280;31078;48.304;11.896;2022-07-19T09:44:43;96722.91;;;29.38;27.85
45345;BME280;31078;48.304;11.896;2022-07-19T09:47:09;96719.91;;;29.29;28.24
45345;BME280;31078;48.304;11.896;2022-07-19T09:49:37;96715.88;;;29.50;29.71
45345;BME280;31078;48.304;11.896;2022-07-19T09:52:04;96706.34;;;29.64;27.76
45345;BME280;31078;48.304;11.896;2022-07-19T09:54:31;96708.81;;;29.62;27.62
45345;BME280;31078;48.304;11.896;2022-07-19T09:56:59;96709.28;;;29.77;27.73
45345;BME280;31078;48.304;11.896;2022-07-19T09:59:26;96703.41;;;29.71;28.22
45345;BME280;31078;48.304;11.896;2022-07-19T10:01:54;96705.50;;;29.83;28.29
45345;BME280;31078;48.304;11.896;2022-07-19T10:04:25;96696.31;;;29.83;27.24
45345;BME280;31078;48.304;11.896;2022-07-19T10:06:54;96695.88;;;30.01;28.04
45345;BME280;31078;48.304;11.896;2022-07-19T10:09:22;96700.16;;;29.89;26.44
45345;BME280;31078;48.304;11.896;2022-07-19T10:11:51;96700.81;;;29.97;26.52
45345;BME280;31078;48.304;11.896;2022-07-19T10:14:18;96695.00;;;30.04;25.55
45345;BME280;31078;48.304;11.896;2022-07-19T10:17:02;96694.69;;;30.18;26.06
45345;BME280;31078;48.304;11.896;2022-07-19T10:19:34;96685.63;;;30.27;26.24
45345;BME280;31078;48.304;11.896;2022-07-19T10:22:05;96680.53;;;30.22;25.92
45345;BME280;31078;48.304;11.896;2022-07-19T10:24:50;96675.72;;;30.38;25.68
45345;BME280;31078;48.304;11.896;2022-07-19T10:27:19;96676.63;;;30.48;26.28
45345;BME280;31078;48.304;11.896;2022-07-19T10:30:17;96683.91;;;30.62;27.50
45345;BME280;31078;48.304;11.896;2022-07-19T10:32:46;96684.44;;;30.73;26.76
45345;BME280;31078;48.304;11.896;2022-07-19T10:35:17;96685.38;;;30.83;27.00
45345;BME280;31078;48.304;11.896;2022-07-19T10:37:48;96680.91;;;30.85;26.73
45345;BME280;31078;48.304;11.896;2022-07-19T10:40:34;96685.22;;;31.03;27.53
45345;BME280;31078;48.304;11.896;2022-07-19T10:43:05;96675.84;;;30.93;25.63
45345;BME280;31078;48.304;11.896;2022-07-19T10:45:32;96677.91;;;31.05;26.22
45345;BME280;31078;48.304;11.896;2022-07-19T10:48:07;96680.28;;;31.07;26.80
45345;BME280;31078;48.304;11.896;2022-07-19T10:50:51;96680.06;;;31.14;26.02
45345;BME280;31078;48.304;11.896;2022-07-19T10:56:33;96679.38;;;31.10;26.30
45345;BME280;31078;48.304;11.896;2022-07-19T10:59:02;96669.94;;;31.16;25.11
45345;BME280;31078;48.304;11.896;2022-07-19T11:01:31;96676.88;;;31.28;25.80
45345;BME280;31078;48.304;11.896;2022-07-19T11:04:24;96676.34;;;31.33;24.74
45345;BME280;31078;48.304;11.896;2022-07-19T11:06:52;96657.09;;;31.57;26.46
45345;BME280;31078;48.304;11.896;2022-07-19T11:09:39;96663.06;;;31.47;23.94
45345;BME280;31078;48.304;11.896;2022-07-19T11:12:30;96672.06;;;31.54;23.40
45345;BME280;31078;48.304;11.896;2022-07-19T11:14:58;96659.34;;;31.62;25.91
45345;BME280;31078;48.304;11.896;2022-07-19T11:17:25;96651.59;;;31.54;23.81
45345;BME280;31078;48.304;11.896;2022-07-19T11:19:59;96660.03;;;31.54;22.72
45345;BME280;31078;48.304;11.896;2022-07-19T11:22:26;96659.81;;;31.48;22.98
45345;BME280;31078;48.304;11.896;2022-07-19T11:24:53;96660.59;;;31.49;22.88
45345;BME280;31078;48.304;11.896;2022-07-19T11:27:22;96650.78;;;31.40;21.60
45345;BME280;31078;48.304;11.896;2022-07-19T11:29:52;96656.97;;;31.35;23.39
45345;BME280;31078;48.304;11.896;2022-07-19T11:32:19;96656.97;;;31.35;22.40
45345;BME280;31078;48.304;11.896;2022-07-19T11:34:53;96648.66;;;31.44;22.34
45345;BME280;31078;48.304;11.896;2022-07-19T11:37:30;96647.72;;;31.48;23.90
45345;BME280;31078;48.304;11.896;2022-07-19T11:40:05;96643.47;;;31.43;24.22
45345;BME280;31078;48.304;11.896;2022-07-19T11:42:36;96641.22;;;31.51;23.52
45345;BME280;31078;48.304;11.896;2022-07-19T11:45:11;96635.03;;;31.43;23.38
45345;BME280;31078;48.304;11.896;2022-07-19T11:47:43;96628.84;;;31.48;23.47
45345;BME280;31078;48.304;11.896;2022-07-19T11:50:15;96628.63;;;31.55;24.03
45345;BME280;31078;48.304;11.896;2022-07-19T11:52:44;96630.66;;;31.55;24.18
45345;BME280;31078;48.304;11.896;2022-07-19T11:55:11;96626.25;;;31.54;21.95
45345;BME280;31078;48.304;11.896;2022-07-19T11:57:39;96621.63;;;31.60;22.83
45345;BME280;31078;48.304;11.896;2022-07-19T12:00:11;96608.13;;;31.55;22.81
45345;BME280;31078;48.304;11.896;2022-07-19T12:02:57;96624.78;;;31.62;22.72
45345;BME280;31078;48.304;11.896;2022-07-19T12:05:29;96617.47;;;31.52;23.17
45345;BME280;31078;48.304;11.896;2022-07-19T12:07:59;96610.13;;;31.67;23.89
45345;BME280;31078;48.304;11.896;2022-07-19T12:10:38;96612.28;;;31.63;22.97
45345;BME280;31078;48.304;11.896;2022-07-19T12:13:07;96603.25;;;31.68;23.24
45345;BME280;31078;48.304;11.896;2022-07-19T12:15:49;96605.19;;;31.84;24.24
45345;BME280;31078;48.304;11.896;2022-07-19T12:18:17;96601.25;;;31.81;22.55
45345;BME280;31078;48.304;11.896;2022-07-19T12:20:44;96602.69;;;31.73;21.44
45345;BME280;31078;48.304;11.896;2022-07-19T12:23:13;96596.84;;;31.80;21.81
45345;BME280;31078;48.304;11.896;2022-07-19T12:25:40;96599.31;;;31.78;22.34
45345;BME280;31078;48.304;11.896;2022-07-19T12:28:08;96594.94;;;31.77;23.12
45345;BME280;31078;48.304;11.896;2022-07-19T12:30:35;96592.03;;;31.81;23.53
45345;BME280;31078;48.304;11.896;2022-07-19T12:33:07;96584.59;;;31.74;23.47
45345;BME280;31078;48.304;11.896;2022-07-19T12:35:41;96581.78;;;31.74;22.14
45345;BME280;31078;48.304;11.896;2022-07-19T12:38:08;96584.22;;;31.72;22.79
45345;BME280;31078;48.304;11.896;2022-07-19T12:40:37;96586.47;;;31.77;22.33
45345;BME280;31078;48.304;11.896;2022-07-19T12:43:04;96577.72;;;31.75;23.40
45345;BME280;31078;48.304;11.896;2022-07-19T12:45:34;96573.44;;;31.70;23.14
45345;BME280;31078;48.304;11.896;2022-07-19T12:48:02;96565.34;;;31.85;22.33
45345;BME280;31078;48.304;11.896;2022-07-19T12:50:32;96564.88;;;31.87;23.26
45345;BME280;31078;48.304;11.896;2022-07-19T12:53:00;96567.81;;;31.83;22.30
45345;BME280;31078;48.304;11.896;2022-07-19T12:55:28;96567.09;;;31.79;22.13
45345;BME280;31078;48.304;11.896;2022-07-19T12:57:57;96573.22;;;31.65;21.31
45345;BME280;31078;48.304;11.896;2022-07-19T13:00:26;96565.09;;;31.67;23.67